sensor_id;sensor_type;location;lat;lon;timestamp;P1;durP1;ratioP1;P2;durP2;ratioP2
83284;SDS011;73191;50.074;8.488;2024-02-26T00:01:43;2.15;;;1.20;;
83284;SDS011;73191;50.074;8.488;2024-02-26T00:04:11;2.28;;;1.10;;
83284;SDS011;73191;50.074;8.488;2024-02-26T00:06:39;4.30;;;1.50;;
83284;SDS011;73191;50.074;8.488;2024-02-26T00:09:07;2.47;;;1.30;;
83284;SDS011;73191;50.074;8.488;2024-02-26T00:11:35;1.88;;;1.30;;
83284;SDS011;73191;50.074;8.488;2024-02-26T00:14:04;2.10;;;1.30;;
83284;SDS011;73191;50.074;8.488;2024-02-26T00:16:31;1.90;;;1.30;;
83284;SDS011;73191;50.074;8.488;2024-02-26T00:19:00;1.80;;;1.13;;
83284;SDS011;73191;50.074;8.488;2024-02-26T00:21:28;2.90;;;1.30;;
83284;SDS011;73191;50.074;8.488;2024-02-26T00:23:56;2.78;;;1.23;;
83284;SDS011;73191;50.074;8.488;2024-02-26T00:26:24;2.15;;;1.20;;
83284;SDS011;73191;50.074;8.488;2024-02-26T00:28:51;1.83;;;1.15;;
83284;SDS011;73191;50.074;8.488;2024-02-26T00:31:19;2.50;;;1.10;;
83284;SDS011;73191;50.074;8.488;2024-02-26T00:33:47;2.53;;;1.20;;
83284;SDS011;73191;50.074;8.488;2024-02-26T00:36:16;2.25;;;1.42;;
83284;SDS011;73191;50.074;8.488;2024-02-26T00:38:45;1.80;;;1.30;;
83284;SDS011;73191;50.074;8.488;2024-02-26T00:41:17;3.47;;;1.33;;
83284;SDS011;73191;50.074;8.488;2024-02-26T00:43:45;3.03;;;1.27;;
83284;SDS011;73191;50.074;8.488;2024-02-26T00:46:13;1.75;;;1.05;;
83284;SDS011;73191;50.074;8.488;2024-02-26T00:48:41;1.90;;;1.10;;
83284;SDS011;73191;50.074;8.488;2024-02-26T00:51:09;3.53;;;1.77;;
83284;SDS011;73191;50.074;8.488;2024-02-26T00:53:38;2.60;;;1.30;;
83284;SDS011;73191;50.074;8.488;2024-02-26T00:56:06;1.60;;;1.15;;
83284;SDS011;73191;50.074;8.488;2024-02-26T00:58:34;2.65;;;1.40;;
83284;SDS011;73191;50.074;8.488;2024-02-26T01:01:02;2.50;;;1.30;;
83284;SDS011;73191;50.074;8.488;2024-02-26T01:03:30;3.30;;;1.30;;
83284;SDS011;73191;50.074;8.488;2024-02-26T01:05:58;3.35;;;1.38;;
83284;SDS011;73191;50.074;8.488;2024-02-26T01:08:26;1.95;;;1.00;;
83284;SDS011;73191;50.074;8.488;2024-02-26T01:10:55;1.67;;;1.20;;
83284;SDS011;73191;50.074;8.488;2024-02-26T01:13:23;3.50;;;1.38;;
83284;SDS011;73191;50.074;8.488;2024-02-26T01:15:50;2.05;;;1.40;;
83284;SDS011;73191;50.074;8.488;2024-02-26T01:18:18;2.05;;;1.27;;
83284;SDS011;73191;50.074;8.488;2024-02-26T01:20:46;2.10;;;1.30;;
83284;SDS011;73191;50.074;8.488;2024-02-26T01:23:14;3.28;;;1.40;;
83284;SDS011;73191;50.074;8.488;2024-02-26T01:25:41;1.98;;;1.20;;
83284;SDS011;73191;50.074;8.488;2024-02-26T01:28:11;1.75;;;1.10;;
83284;SDS011;73191;50.074;8.488;2024-02-26T01:30:38;1.58;;;1.08;;
83284;SDS011;73191;50.074;8.488;2024-02-26T01:33:06;2.75;;;1.35;;
83284;SDS011;73191;50.074;8.488;2024-02-26T01:35:34;1.95;;;1.13;;
83284;SDS011;73191;50.074;8.488;2024-02-26T01:38:02;2.28;;;1.30;;
83284;SDS011;73191;50.074;8.488;2024-02-26T01:40:30;1.98;;;1.30;;
83284;SDS011;73191;50.074;8.488;2024-02-26T01:42:58;2.20;;;1.33;;
83284;SDS011;73191;50.074;8.488;2024-02-26T01:45:27;2.00;;;1.20;;
83284;SDS011;73191;50.074;8.488;2024-02-26T01:47:55;2.42;;;1.35;;
83284;SDS011;73191;50.074;8.488;2024-02-26T01:50:24;2.42;;;1.20;;
83284;SDS011;73191;50.074;8.488;2024-02-26T01:52:52;2.38;;;1.35;;
83284;SDS011;73191;50.074;8.488;2024-02-26T01:55:22;2.22;;;1.10;;
83284;SDS011;73191;50.074;8.488;2024-02-26T01:57:51;2.10;;;1.15;;
83284;SDS011;73191;50.074;8.488;2024-02-26T02:00:19;2.50;;;1.13;;
83284;SDS011;73191;50.074;8.488;2024-02-26T02:02:49;2.90;;;1.30;;
83284;SDS011;73191;50.074;8.488;2024-02-26T02:05:17;1.65;;;1.13;;
83284;SDS011;73191;50.074;8.488;2024-02-26T02:07:44;2.30;;;1.40;;
83284;SDS011;73191;50.074;8.488;2024-02-26T02:10:13;2.17;;;1.30;;
83284;SDS011;73191;50.074;8.488;2024-02-26T02:12:40;2.45;;;1.48;;
83284;SDS011;73191;50.074;8.488;2024-02-26T02:15:08;2.03;;;1.25;;
83284;SDS011;73191;50.074;8.488;2024-02-26T02:17:36;2.15;;;1.42;;
83284;SDS011;73191;50.074;8.488;2024-02-26T02:20:09;2.75;;;1.35;;
83284;SDS011;73191;50.074;8.488;2024-02-26T02:22:38;2.10;;;1.40;;
83284;SDS011;73191;50.074;8.488;2024-02-26T02:25:06;2.40;;;1.48;;
83284;SDS011;73191;50.074;8.488;2024-02-26T02:27:34;2.15;;;1.38;;
83284;SDS011;73191;50.074;8.488;2024-02-26T02:30:02;1.92;;;1.20;;
83284;SDS011;73191;50.074;8.488;2024-02-26T02:32:32;2.13;;;1.20;;
83284;SDS011;73191;50.074;8.488;2024-02-26T02:35:01;1.90;;;1.20;;
83284;SDS011;73191;50.074;8.488;2024-02-26T02:37:30;2.00;;;1.25;;
83284;SDS011;73191;50.074;8.488;2024-02-26T02:39:59;1.85;;;1.40;;
83284;SDS011;73191;50.074;8.488;2024-02-26T02:42:26;2.25;;;1.35;;
83284;SDS011;73191;50.074;8.488;2024-02-26T02:44:54;1.73;;;1.30;;
83284;SDS011;73191;50.074;8.488;2024-02-26T02:47:22;3.15;;;1.52;;
83284;SDS011;73191;50.074;8.488;2024-02-26T02:49:49;3.13;;;1.55;;
83284;SDS011;73191;50.074;8.488;2024-02-26T02:52:17;2.80;;;1.50;;
83284;SDS011;73191;50.074;8.488;2024-02-26T02:54:45;3.50;;;1.60;;
83284;SDS011;73191;50.074;8.488;2024-02-26T02:57:14;2.42;;;1.50;;
83284;SDS011;73191;50.074;8.488;2024-02-26T02:59:43;3.88;;;1.73;;
83284;SDS011;73191;50.074;8.488;2024-02-26T03:02:10;2.13;;;1.40;;
83284;SDS011;73191;50.074;8.488;2024-02-26T03:04:38;2.47;;;1.67;;
83284;SDS011;73191;50.074;8.488;2024-02-26T03:07:06;2.97;;;1.45;;
83284;SDS011;73191;50.074;8.488;2024-02-26T03:09:34;2.28;;;1.38;;
83284;SDS011;73191;50.074;8.488;2024-02-26T03:12:01;2.95;;;1.70;;
83284;SDS011;73191;50.074;8.488;2024-02-26T03:14:30;3.08;;;1.65;;
83284;SDS011;73191;50.074;8.488;2024-02-26T03:16:58;2.15;;;1.30;;
83284;SDS011;73191;50.074;8.488;2024-02-26T03:19:26;2.08;;;1.40;;
83284;SDS011;73191;50.074;8.488;2024-02-26T03:21:53;2.80;;;1.55;;
83284;SDS011;73191;50.074;8.488;2024-02-26T03:24:21;2.10;;;1.50;;
83284;SDS011;73191;50.074;8.488;2024-02-26T03:26:49;3.30;;;1.67;;
83284;SDS011;73191;50.074;8.488;2024-02-26T03:29:18;2.13;;;1.40;;
83284;SDS011;73191;50.074;8.488;2024-02-26T03:31:47;2.63;;;1.35;;
83284;SDS011;73191;50.074;8.488;2024-02-26T03:34:15;2.33;;;1.48;;
83284;SDS011;73191;50.074;8.488;2024-02-26T03:36:44;2.42;;;1.42;;
83284;SDS011;73191;50.074;8.488;2024-02-26T03:39:11;1.70;;;1.48;;
83284;SDS011;73191;50.074;8.488;2024-02-26T03:41:39;3.03;;;2.00;;
83284;SDS011;73191;50.074;8.488;2024-02-26T03:44:07;2.72;;;1.63;;
83284;SDS011;73191;50.074;8.488;2024-02-26T03:46:34;2.17;;;1.48;;
83284;SDS011;73191;50.074;8.488;2024-02-26T03:49:03;3.72;;;1.50;;
83284;SDS011;73191;50.074;8.488;2024-02-26T03:51:31;2.42;;;1.50;;
83284;SDS011;73191;50.074;8.488;2024-02-26T03:53:59;2.88;;;1.50;;
83284;SDS011;73191;50.074;8.488;2024-02-26T03:56:27;2.97;;;1.70;;
83284;SDS011;73191;50.074;8.488;2024-02-26T03:58:55;3.05;;;1.42;;
83284;SDS011;73191;50.074;8.488;2024-02-26T04:01:22;3.28;;;1.45;;
83284;SDS011;73191;50.074;8.488;2024-02-26T04:03:50;2.85;;;1.70;;
83284;SDS011;73191;50.074;8.488;2024-02-26T04:06:20;3.10;;;1.88;;
83284;SDS011;73191;50.074;8.488;2024-02-26T04:08:49;2.88;;;1.60;;
83284;SDS011;73191;50.074;8.488;2024-02-26T04:11:16;3.20;;;1.90;;
83284;SDS011;73191;50.074;8.488;2024-02-26T04:13:45;3.33;;;1.70;;
83284;SDS011;73191;50.074;8.488;2024-02-26T04:16:15;3.75;;;1.65;;
83284;SDS011;73191;50.074;8.488;2024-02-26T04:18:43;2.92;;;1.90;;
83284;SDS011;73191;50.074;8.488;2024-02-26T04:21:11;3.55;;;1.70;;
83284;SDS011;73191;50.074;8.488;2024-02-26T04:23:40;3.08;;;1.52;;
83284;SDS011;73191;50.074;8.488;2024-02-26T04:26:08;2.75;;;1.80;;
83284;SDS011;73191;50.074;8.488;2024-02-26T04:28:35;2.88;;;1.83;;
83284;SDS011;73191;50.074;8.488;2024-02-26T04:31:03;3.08;;;1.90;;
83284;SDS011;73191;50.074;8.488;2024-02-26T04:33:33;3.63;;;1.90;;
83284;SDS011;73191;50.074;8.488;2024-02-26T04:36:01;3.97;;;2.03;;
83284;SDS011;73191;50.074;8.488;2024-02-26T04:38:29;4.07;;;2.00;;
83284;SDS011;73191;50.074;8.488;2024-02-26T04:40:58;3.72;;;1.80;;
83284;SDS011;73191;50.074;8.488;2024-02-26T04:43:26;2.80;;;1.90;;
83284;SDS011;73191;50.074;8.488;2024-02-26T04:45:54;3.38;;;2.20;;
83284;SDS011;73191;50.074;8.488;2024-02-26T04:48:23;3.15;;;1.90;;
83284;SDS011;73191;50.074;8.488;2024-02-26T04:50:51;4.65;;;2.08;;
83284;SDS011;73191;50.074;8.488;2024-02-26T04:53:19;4.10;;;1.88;;
83284;SDS011;73191;50.074;8.488;2024-02-26T04:55:46;5.68;;;2.20;;
83284;SDS011;73191;50.074;8.488;2024-02-26T04:58:15;3.38;;;2.22;;
83284;SDS011;73191;50.074;8.488;2024-02-26T05:00:43;3.65;;;2.15;;
83284;SDS011;73191;50.074;8.488;2024-02-26T05:03:11;7.53;;;2.60;;
83284;SDS011;73191;50.074;8.488;2024-02-26T05:05:39;5.93;;;2.00;;
83284;SDS011;73191;50.074;8.488;2024-02-26T05:08:08;3.50;;;2.17;;
83284;SDS011;73191;50.074;8.488;2024-02-26T05:10:36;3.58;;;2.15;;
83284;SDS011;73191;50.074;8.488;2024-02-26T05:13:07;4.57;;;2.42;;
83284;SDS011;73191;50.074;8.488;2024-02-26T05:15:36;5.00;;;2.30;;
83284;SDS011;73191;50.074;8.488;2024-02-26T05:18:04;3.85;;;2.42;;
83284;SDS011;73191;50.074;8.488;2024-02-26T05:20:32;5.65;;;2.70;;
83284;SDS011;73191;50.074;8.488;2024-02-26T05:23:01;6.40;;;2.65;;
83284;SDS011;73191;50.074;8.488;2024-02-26T05:25:30;4.18;;;2.60;;
83284;SDS011;73191;50.074;8.488;2024-02-26T05:27:57;5.15;;;2.42;;
83284;SDS011;73191;50.074;8.488;2024-02-26T05:30:25;4.30;;;2.58;;
83284;SDS011;73191;50.074;8.488;2024-02-26T05:32:55;5.63;;;2.95;;
83284;SDS011;73191;50.074;8.488;2024-02-26T05:35:24;4.30;;;2.40;;
83284;SDS011;73191;50.074;8.488;2024-02-26T05:37:52;5.18;;;2.42;;
83284;SDS011;73191;50.074;8.488;2024-02-26T05:40:20;3.95;;;2.75;;
83284;SDS011;73191;50.074;8.488;2024-02-26T05:42:47;3.97;;;2.80;;
83284;SDS011;73191;50.074;8.488;2024-02-26T05:45:15;7.05;;;3.13;;
83284;SDS011;73191;50.074;8.488;2024-02-26T05:47:43;4.10;;;2.80;;
83284;SDS011;73191;50.074;8.488;2024-02-26T05:50:12;4.50;;;2.60;;
83284;SDS011;73191;50.074;8.488;2024-02-26T05:52:42;5.15;;;2.65;;
83284;SDS011;73191;50.074;8.488;2024-02-26T05:55:10;5.28;;;3.00;;
83284;SDS011;73191;50.074;8.488;2024-02-26T05:57:39;3.53;;;2.50;;
83284;SDS011;73191;50.074;8.488;2024-02-26T06:00:07;4.95;;;2.92;;
83284;SDS011;73191;50.074;8.488;2024-02-26T06:02:39;4.43;;;2.60;;
83284;SDS011;73191;50.074;8.488;2024-02-26T06:05:07;5.50;;;2.85;;
83284;SDS011;73191;50.074;8.488;2024-02-26T06:07:36;4.28;;;2.50;;
83284;SDS011;73191;50.074;8.488;2024-02-26T06:10:05;5.22;;;2.80;;
83284;SDS011;73191;50.074;8.488;2024-02-26T06:12:34;4.15;;;2.80;;
83284;SDS011;73191;50.074;8.488;2024-02-26T06:15:03;3.75;;;2.63;;
83284;SDS011;73191;50.074;8.488;2024-02-26T06:17:31;4.53;;;2.67;;
83284;SDS011;73191;50.074;8.488;2024-02-26T06:19:58;7.47;;;2.92;;
83284;SDS011;73191;50.074;8.488;2024-02-26T06:22:27;6.68;;;3.10;;
83284;SDS011;73191;50.074;8.488;2024-02-26T06:24:56;7.30;;;4.03;;
83284;SDS011;73191;50.074;8.488;2024-02-26T06:27:24;7.05;;;3.55;;
83284;SDS011;73191;50.074;8.488;2024-02-26T06:29:52;5.47;;;2.65;;
83284;SDS011;73191;50.074;8.488;2024-02-26T06:32:23;7.88;;;3.30;;
83284;SDS011;73191;50.074;8.488;2024-02-26T06:34:50;5.60;;;2.72;;
83284;SDS011;73191;50.074;8.488;2024-02-26T06:37:18;8.38;;;3.20;;
83284;SDS011;73191;50.074;8.488;2024-02-26T06:39:46;9.02;;;2.88;;
83284;SDS011;73191;50.074;8.488;2024-02-26T06:42:15;5.47;;;3.08;;
83284;SDS011;73191;50.074;8.488;2024-02-26T06:44:43;5.68;;;3.53;;
83284;SDS011;73191;50.074;8.488;2024-02-26T06:47:10;5.00;;;3.20;;
83284;SDS011;73191;50.074;8.488;2024-02-26T06:49:39;5.97;;;3.05;;
83284;SDS011;73191;50.074;8.488;2024-02-26T06:52:07;5.63;;;3.03;;
83284;SDS011;73191;50.074;8.488;2024-02-26T06:54:34;5.38;;;2.85;;
83284;SDS011;73191;50.074;8.488;2024-02-26T06:57:02;6.55;;;3.05;;
83284;SDS011;73191;50.074;8.488;2024-02-26T06:59:32;4.75;;;2.85;;
83284;SDS011;73191;50.074;8.488;2024-02-26T07:01:59;5.82;;;2.92;;
83284;SDS011;73191;50.074;8.488;2024-02-26T07:04:27;6.45;;;3.42;;
83284;SDS011;73191;50.074;8.488;2024-02-26T07:06:55;6.32;;;3.17;;
83284;SDS011;73191;50.074;8.488;2024-02-26T07:09:23;8.43;;;3.75;;
83284;SDS011;73191;50.074;8.488;2024-02-26T07:11:51;6.50;;;3.30;;
83284;SDS011;73191;50.074;8.488;2024-02-26T07:14:19;7.80;;;4.20;;
83284;SDS011;73191;50.074;8.488;2024-02-26T07:16:48;8.90;;;5.05;;
83284;SDS011;73191;50.074;8.488;2024-02-26T07:19:16;6.63;;;3.60;;
83284;SDS011;73191;50.074;8.488;2024-02-26T07:21:43;8.40;;;4.07;;
83284;SDS011;73191;50.074;8.488;2024-02-26T07:24:11;7.18;;;3.55;;
83284;SDS011;73191;50.074;8.488;2024-02-26T07:26:39;6.05;;;3.30;;
83284;SDS011;73191;50.074;8.488;2024-02-26T07:29:07;5.80;;;3.20;;
83284;SDS011;73191;50.074;8.488;2024-02-26T07:31:34;6.15;;;3.70;;
83284;SDS011;73191;50.074;8.488;2024-02-26T07:34:03;6.85;;;2.97;;
83284;SDS011;73191;50.074;8.488;2024-02-26T07:36:31;6.85;;;3.33;;
83284;SDS011;73191;50.074;8.488;2024-02-26T07:38:59;5.22;;;3.35;;
83284;SDS011;73191;50.074;8.488;2024-02-26T07:41:27;6.07;;;3.40;;
83284;SDS011;73191;50.074;8.488;2024-02-26T07:43:55;5.68;;;2.95;;
83284;SDS011;73191;50.074;8.488;2024-02-26T07:46:22;8.35;;;3.38;;
83284;SDS011;73191;50.074;8.488;2024-02-26T07:48:50;5.75;;;3.50;;
83284;SDS011;73191;50.074;8.488;2024-02-26T07:51:19;7.88;;;3.80;;
83284;SDS011;73191;50.074;8.488;2024-02-26T07:53:49;7.15;;;3.55;;
83284;SDS011;73191;50.074;8.488;2024-02-26T07:56:19;5.50;;;3.13;;
83284;SDS011;73191;50.074;8.488;2024-02-26T07:58:46;7.90;;;3.13;;
83284;SDS011;73191;50.074;8.488;2024-02-26T08:01:14;5.82;;;3.13;;
83284;SDS011;73191;50.074;8.488;2024-02-26T08:03:42;4.80;;;3.20;;
83284;SDS011;73191;50.074;8.488;2024-02-26T08:06:10;5.85;;;3.20;;
83284;SDS011;73191;50.074;8.488;2024-02-26T08:08:39;5.30;;;3.25;;
83284;SDS011;73191;50.074;8.488;2024-02-26T08:11:06;7.25;;;3.67;;
83284;SDS011;73191;50.074;8.488;2024-02-26T08:13:35;5.88;;;3.40;;
83284;SDS011;73191;50.074;8.488;2024-02-26T08:16:03;5.60;;;3.17;;
83284;SDS011;73191;50.074;8.488;2024-02-26T08:18:31;6.50;;;3.08;;
83284;SDS011;73191;50.074;8.488;2024-02-26T08:20:59;5.20;;;3.42;;
83284;SDS011;73191;50.074;8.488;2024-02-26T08:23:27;6.07;;;2.80;;
83284;SDS011;73191;50.074;8.488;2024-02-26T08:25:56;5.13;;;3.10;;
83284;SDS011;73191;50.074;8.488;2024-02-26T08:28:24;5.15;;;2.53;;
83284;SDS011;73191;50.074;8.488;2024-02-26T08:30:52;6.03;;;3.30;;
83284;SDS011;73191;50.074;8.488;2024-02-26T08:33:19;5.32;;;2.78;;
83284;SDS011;73191;50.074;8.488;2024-02-26T08:35:47;4.30;;;2.92;;
83284;SDS011;73191;50.074;8.488;2024-02-26T08:38:15;5.20;;;2.63;;
83284;SDS011;73191;50.074;8.488;2024-02-26T08:40:43;5.07;;;2.95;;
83284;SDS011;73191;50.074;8.488;2024-02-26T08:43:12;5.50;;;2.90;;
83284;SDS011;73191;50.074;8.488;2024-02-26T08:46:02;5.60;;;2.90;;
83284;SDS011;73191;50.074;8.488;2024-02-26T08:48:34;9.13;;;4.95;;
83284;SDS011;73191;50.074;8.488;2024-02-26T08:51:04;4.93;;;3.00;;
83284;SDS011;73191;50.074;8.488;2024-02-26T08:53:32;6.38;;;3.10;;
83284;SDS011;73191;50.074;8.488;2024-02-26T08:56:08;4.93;;;3.45;;
83284;SDS011;73191;50.074;8.488;2024-02-26T08:58:39;5.82;;;3.47;;
83284;SDS011;73191;50.074;8.488;2024-02-26T09:01:06;5.93;;;3.33;;
83284;SDS011;73191;50.074;8.488;2024-02-26T09:03:34;5.45;;;3.22;;
83284;SDS011;73191;50.074;8.488;2024-02-26T09:06:02;7.70;;;3.50;;
83284;SDS011;73191;50.074;8.488;2024-02-26T09:08:30;4.65;;;2.53;;
83284;SDS011;73191;50.074;8.488;2024-02-26T09:10:58;5.40;;;2.90;;
83284;SDS011;73191;50.074;8.488;2024-02-26T09:13:26;5.13;;;3.03;;
83284;SDS011;73191;50.074;8.488;2024-02-26T09:15:55;5.57;;;3.30;;
83284;SDS011;73191;50.074;8.488;2024-02-26T09:18:23;4.95;;;3.22;;
83284;SDS011;73191;50.074;8.488;2024-02-26T09:20:51;9.30;;;3.95;;
83284;SDS011;73191;50.074;8.488;2024-02-26T09:23:19;7.35;;;3.33;;
83284;SDS011;73191;50.074;8.488;2024-02-26T09:25:46;6.47;;;3.50;;
83284;SDS011;73191;50.074;8.488;2024-02-26T09:28:15;6.05;;;3.38;;
83284;SDS011;73191;50.074;8.488;2024-02-26T09:30:43;8.73;;;3.42;;
83284;SDS011;73191;50.074;8.488;2024-02-26T09:33:13;6.25;;;3.60;;
83284;SDS011;73191;50.074;8.488;2024-02-26T09:35:41;7.65;;;3.53;;
83284;SDS011;73191;50.074;8.488;2024-02-26T09:38:09;5.78;;;3.38;;
83284;SDS011;73191;50.074;8.488;2024-02-26T09:40:36;5.57;;;3.22;;
83284;SDS011;73191;50.074;8.488;2024-02-26T09:43:04;6.15;;;3.42;;
83284;SDS011;73191;50.074;8.488;2024-02-26T09:45:32;8.93;;;4.32;;
83284;SDS011;73191;50.074;8.488;2024-02-26T09:48:00;5.68;;;3.20;;
83284;SDS011;73191;50.074;8.488;2024-02-26T09:50:32;6.72;;;3.47;;
83284;SDS011;73191;50.074;8.488;2024-02-26T09:53:00;6.82;;;3.95;;
83284;SDS011;73191;50.074;8.488;2024-02-26T09:55:29;6.82;;;3.80;;
83284;SDS011;73191;50.074;8.488;2024-02-26T09:57:57;7.72;;;3.97;;
83284;SDS011;73191;50.074;8.488;2024-02-26T10:00:25;7.72;;;3.60;;
83284;SDS011;73191;50.074;8.488;2024-02-26T10:02:56;8.73;;;3.83;;
83284;SDS011;73191;50.074;8.488;2024-02-26T10:05:26;6.72;;;3.97;;
83284;SDS011;73191;50.074;8.488;2024-02-26T10:07:57;6.75;;;3.72;;
83284;SDS011;73191;50.074;8.488;2024-02-26T10:10:28;9.45;;;3.85;;
83284;SDS011;73191;50.074;8.488;2024-02-26T10:12:58;8.23;;;4.15;;
83284;SDS011;73191;50.074;8.488;2024-02-26T10:15:27;7.30;;;3.90;;
83284;SDS011;73191;50.074;8.488;2024-02-26T10:17:55;6.65;;;3.60;;
83284;SDS011;73191;50.074;8.488;2024-02-26T10:20:23;6.13;;;3.67;;
83284;SDS011;73191;50.074;8.488;2024-02-26T10:22:52;7.22;;;3.88;;
83284;SDS011;73191;50.074;8.488;2024-02-26T10:25:21;7.40;;;4.45;;
83284;SDS011;73191;50.074;8.488;2024-02-26T10:27:49;6.35;;;4.00;;
83284;SDS011;73191;50.074;8.488;2024-02-26T10:30:17;6.72;;;3.75;;
83284;SDS011;73191;50.074;8.488;2024-02-26T10:32:46;6.25;;;4.00;;
83284;SDS011;73191;50.074;8.488;2024-02-26T10:35:15;7.03;;;4.13;;
83284;SDS011;73191;50.074;8.488;2024-02-26T10:37:44;9.35;;;4.30;;
83284;SDS011;73191;50.074;8.488;2024-02-26T10:40:12;12.40;;;4.63;;
83284;SDS011;73191;50.074;8.488;2024-02-26T10:42:41;10.07;;;4.40;;
83284;SDS011;73191;50.074;8.488;2024-02-26T10:45:11;7.95;;;4.15;;
83284;SDS011;73191;50.074;8.488;2024-02-26T10:47:40;6.70;;;3.85;;
83284;SDS011;73191;50.074;8.488;2024-02-26T10:50:08;6.43;;;3.95;;
83284;SDS011;73191;50.074;8.488;2024-02-26T10:52:36;7.05;;;4.03;;
83284;SDS011;73191;50.074;8.488;2024-02-26T10:55:05;6.32;;;4.05;;
83284;SDS011;73191;50.074;8.488;2024-02-26T10:57:34;10.23;;;4.65;;
83284;SDS011;73191;50.074;8.488;2024-02-26T11:00:10;8.35;;;4.70;;
83284;SDS011;73191;50.074;8.488;2024-02-26T11:02:40;7.60;;;4.30;;
83284;SDS011;73191;50.074;8.488;2024-02-26T11:05:08;6.82;;;3.97;;
83284;SDS011;73191;50.074;8.488;2024-02-26T11:07:36;6.55;;;3.63;;
83284;SDS011;73191;50.074;8.488;2024-02-26T11:10:06;8.60;;;4.00;;
83284;SDS011;73191;50.074;8.488;2024-02-26T11:12:34;7.70;;;4.32;;
83284;SDS011;73191;50.074;8.488;2024-02-26T11:15:04;7.65;;;3.95;;
83284;SDS011;73191;50.074;8.488;2024-02-26T11:17:34;6.38;;;3.92;;
83284;SDS011;73191;50.074;8.488;2024-02-26T11:20:03;5.75;;;3.80;;
83284;SDS011;73191;50.074;8.488;2024-02-26T11:22:32;8.18;;;4.05;;
83284;SDS011;73191;50.074;8.488;2024-02-26T11:25:00;6.10;;;4.05;;
83284;SDS011;73191;50.074;8.488;2024-02-26T11:27:29;5.45;;;3.88;;
83284;SDS011;73191;50.074;8.488;2024-02-26T11:29:59;6.93;;;3.92;;
83284;SDS011;73191;50.074;8.488;2024-02-26T11:32:28;6.10;;;3.65;;
83284;SDS011;73191;50.074;8.488;2024-02-26T11:34:58;7.50;;;3.83;;
83284;SDS011;73191;50.074;8.488;2024-02-26T11:37:27;6.47;;;3.97;;
83284;SDS011;73191;50.074;8.488;2024-02-26T11:39:54;6.70;;;3.53;;
83284;SDS011;73191;50.074;8.488;2024-02-26T11:42:23;6.93;;;4.10;;
83284;SDS011;73191;50.074;8.488;2024-02-26T11:44:52;5.72;;;3.55;;
83284;SDS011;73191;50.074;8.488;2024-02-26T11:47:20;6.32;;;3.55;;
83284;SDS011;73191;50.074;8.488;2024-02-26T11:49:49;9.27;;;4.30;;
83284;SDS011;73191;50.074;8.488;2024-02-26T11:52:18;7.38;;;3.63;;
83284;SDS011;73191;50.074;8.488;2024-02-26T11:54:46;6.40;;;3.58;;
83284;SDS011;73191;50.074;8.488;2024-02-26T11:57:22;7.45;;;3.58;;
83284;SDS011;73191;50.074;8.488;2024-02-26T11:59:50;5.93;;;3.85;;
83284;SDS011;73191;50.074;8.488;2024-02-26T12:02:37;6.32;;;4.28;;
83284;SDS011;73191;50.074;8.488;2024-02-26T12:05:07;5.40;;;3.80;;
83284;SDS011;73191;50.074;8.488;2024-02-26T12:07:59;6.68;;;3.83;;
83284;SDS011;73191;50.074;8.488;2024-02-26T12:10:34;7.40;;;4.25;;
83284;SDS011;73191;50.074;8.488;2024-02-26T12:13:06;6.68;;;3.72;;
83284;SDS011;73191;50.074;8.488;2024-02-26T12:15:36;7.07;;;3.67;;
83284;SDS011;73191;50.074;8.488;2024-02-26T12:18:05;7.65;;;4.13;;
83284;SDS011;73191;50.074;8.488;2024-02-26T12:20:34;5.63;;;3.20;;
83284;SDS011;73191;50.074;8.488;2024-02-26T12:23:04;6.30;;;3.47;;
83284;SDS011;73191;50.074;8.488;2024-02-26T12:25:32;6.18;;;3.55;;
83284;SDS011;73191;50.074;8.488;2024-02-26T12:28:00;5.70;;;3.70;;
83284;SDS011;73191;50.074;8.488;2024-02-26T12:30:28;6.20;;;3.75;;
83284;SDS011;73191;50.074;8.488;2024-02-26T12:32:59;7.18;;;3.53;;
83284;SDS011;73191;50.074;8.488;2024-02-26T12:35:28;6.28;;;3.50;;
83284;SDS011;73191;50.074;8.488;2024-02-26T12:37:58;7.35;;;4.07;;
83284;SDS011;73191;50.074;8.488;2024-02-26T12:40:27;6.72;;;4.18;;
83284;SDS011;73191;50.074;8.488;2024-02-26T12:42:56;5.80;;;3.53;;
83284;SDS011;73191;50.074;8.488;2024-02-26T12:45:24;7.63;;;4.47;;
83284;SDS011;73191;50.074;8.488;2024-02-26T12:47:53;6.80;;;3.83;;
83284;SDS011;73191;50.074;8.488;2024-02-26T12:50:21;5.22;;;3.58;;
83284;SDS011;73191;50.074;8.488;2024-02-26T12:52:50;5.85;;;3.42;;
83284;SDS011;73191;50.074;8.488;2024-02-26T12:55:19;5.45;;;3.63;;
83284;SDS011;73191;50.074;8.488;2024-02-26T12:57:49;7.15;;;4.00;;
83284;SDS011;73191;50.074;8.488;2024-02-26T13:00:19;6.07;;;3.72;;
83284;SDS011;73191;50.074;8.488;2024-02-26T13:02:49;6.75;;;3.58;;
83284;SDS011;73191;50.074;8.488;2024-02-26T13:05:18;5.25;;;3.42;;
83284;SDS011;73191;50.074;8.488;2024-02-26T13:07:46;5.75;;;3.55;;
83284;SDS011;73191;50.074;8.488;2024-02-26T13:10:14;6.82;;;3.67;;
83284;SDS011;73191;50.074;8.488;2024-02-26T13:12:44;8.82;;;4.10;;
83284;SDS011;73191;50.074;8.488;2024-02-26T13:15:15;6.18;;;3.80;;
83284;SDS011;73191;50.074;8.488;2024-02-26T13:17:44;7.70;;;3.72;;
83284;SDS011;73191;50.074;8.488;2024-02-26T13:20:12;6.55;;;3.50;;
83284;SDS011;73191;50.074;8.488;2024-02-26T13:22:41;6.28;;;3.75;;
83284;SDS011;73191;50.074;8.488;2024-02-26T13:25:09;6.68;;;3.78;;
83284;SDS011;73191;50.074;8.488;2024-02-26T13:27:37;7.00;;;3.50;;
83284;SDS011;73191;50.074;8.488;2024-02-26T13:30:05;8.80;;;3.95;;
83284;SDS011;73191;50.074;8.488;2024-02-26T13:32:38;7.07;;;3.35;;
83284;SDS011;73191;50.074;8.488;2024-02-26T13:35:07;5.07;;;3.63;;
83284;SDS011;73191;50.074;8.488;2024-02-26T13:37:35;6.28;;;3.25;;
83284;SDS011;73191;50.074;8.488;2024-02-26T13:40:07;6.68;;;3.72;;
83284;SDS011;73191;50.074;8.488;2024-02-26T13:42:36;6.72;;;3.63;;
83284;SDS011;73191;50.074;8.488;2024-02-26T13:45:04;6.15;;;3.58;;
83284;SDS011;73191;50.074;8.488;2024-02-26T13:47:33;5.45;;;3.38;;
83284;SDS011;73191;50.074;8.488;2024-02-26T13:50:03;6.30;;;3.50;;
83284;SDS011;73191;50.074;8.488;2024-02-26T13:52:32;6.07;;;3.25;;
83284;SDS011;73191;50.074;8.488;2024-02-26T13:55:00;6.13;;;3.20;;
83284;SDS011;73191;50.074;8.488;2024-02-26T13:57:29;5.75;;;3.50;;
83284;SDS011;73191;50.074;8.488;2024-02-26T13:59:57;5.53;;;3.40;;
83284;SDS011;73191;50.074;8.488;2024-02-26T14:02:25;5.05;;;3.60;;
83284;SDS011;73191;50.074;8.488;2024-02-26T14:04:53;6.18;;;3.38;;
83284;SDS011;73191;50.074;8.488;2024-02-26T14:07:22;5.95;;;3.88;;
83284;SDS011;73191;50.074;8.488;2024-02-26T14:09:49;7.38;;;3.60;;
83284;SDS011;73191;50.074;8.488;2024-02-26T14:12:18;5.32;;;3.15;;
83284;SDS011;73191;50.074;8.488;2024-02-26T14:14:50;6.43;;;3.33;;
83284;SDS011;73191;50.074;8.488;2024-02-26T14:17:19;7.22;;;2.85;;
83284;SDS011;73191;50.074;8.488;2024-02-26T14:19:47;7.38;;;3.28;;
83284;SDS011;73191;50.074;8.488;2024-02-26T14:22:16;5.15;;;3.20;;
83284;SDS011;73191;50.074;8.488;2024-02-26T14:24:45;7.18;;;3.20;;
83284;SDS011;73191;50.074;8.488;2024-02-26T14:27:13;6.88;;;3.40;;
83284;SDS011;73191;50.074;8.488;2024-02-26T14:29:42;5.70;;;3.03;;
83284;SDS011;73191;50.074;8.488;2024-02-26T14:32:10;5.35;;;3.42;;
83284;SDS011;73191;50.074;8.488;2024-02-26T14:34:38;5.00;;;3.40;;
83284;SDS011;73191;50.074;8.488;2024-02-26T14:37:06;4.35;;;2.70;;
83284;SDS011;73191;50.074;8.488;2024-02-26T14:39:33;4.88;;;3.17;;
83284;SDS011;73191;50.074;8.488;2024-02-26T14:42:03;5.03;;;2.88;;
83284;SDS011;73191;50.074;8.488;2024-02-26T14:44:31;4.82;;;3.20;;
83284;SDS011;73191;50.074;8.488;2024-02-26T14:46:58;5.22;;;2.80;;
83284;SDS011;73191;50.074;8.488;2024-02-26T14:49:26;6.60;;;3.28;;
83284;SDS011;73191;50.074;8.488;2024-02-26T14:51:56;5.35;;;2.80;;
83284;SDS011;73191;50.074;8.488;2024-02-26T14:54:24;4.10;;;2.72;;
83284;SDS011;73191;50.074;8.488;2024-02-26T14:56:51;4.82;;;2.97;;